Time;durP1;ratioP1;P1;durP2;ratioP2;P2;SDS_P1;SDS_P2;PMS_P1;PMS_P2;Temp;Humidity;BMP_temperature;BMP_pressure;BME280_temperature;BME280_humidity;BME280_pressure;Samples;Min_cycle;Max_cycle;Signal;HPM_P1;HPM_P2
2022/03/10 00:00:30;;;;;;;31.90;17.03;;;;;;;-0.16;66.43;95847.44;1695143;84;21505;-71
2022/03/10 00:02:58;;;;;;;30.90;16.03;;;;;;;-0.16;66.77;95852.63;1695369;84;21015;-71
2022/03/10 00:05:25;;;;;;;23.30;13.50;;;;;;;-0.17;66.78;95849.59;1696011;84;21485;-71
2022/03/10 00:07:51;;;;;;;17.37;10.03;;;;;;;-0.23;67.91;95851.18;1695763;85;21083;-71
2022/03/10 00:10:18;;;;;;;15.70;9.07;;;;;;;-0.33;69.00;95846.98;1695766;85;21031;-71
2022/03/10 00:12:50;;;;;;;17.37;9.07;;;;;;;-0.42;69.93;95845.02;1709180;84;21550;-71
2022/03/10 00:15:20;;;;;;;15.87;9.80;;;;;;;-0.46;69.91;95849.23;1695676;85;21024;-71
2022/03/10 00:17:47;;;;;;;16.73;9.73;;;;;;;-0.49;69.82;95845.27;1708933;83;21462;-71
2022/03/10 00:20:14;;;;;;;13.57;8.90;;;;;;;-0.54;70.49;95849.44;1695810;85;21015;-71
2022/03/10 00:22:48;;;;;;;17.33;9.50;;;;;;;-0.59;71.07;95850.16;1709068;84;21505;-71
2022/03/10 00:25:16;;;;;;;16.03;9.43;;;;;;;-0.66;72.09;95849.09;1695805;85;20991;-71
2022/03/10 00:27:43;;;;;;;14.93;7.80;;;;;;;-0.69;72.26;95843.83;1708993;84;21026;-71
2022/03/10 00:30:11;;;;;;;16.60;9.70;;;;;;;-0.75;73.27;95847.13;1695619;85;21557;-70
2022/03/10 00:32:44;;;;;;;16.60;9.13;;;;;;;-0.77;73.07;95845.33;1709193;84;20999;-70
2022/03/10 00:35:10;;;;;;;14.83;9.35;;;;;;;-0.79;74.13;95852.17;1695523;83;21067;-70
2022/03/10 00:37:37;;;;;;;15.03;9.00;;;;;;;-0.86;74.76;95851.11;1708915;84;21063;-70
2022/03/10 00:40:06;;;;;;;16.47;9.00;;;;;;;-0.90;75.45;95857.92;1695658;85;21034;-70
2022/03/10 00:42:38;;;;;;;17.47;8.60;;;;;;;-0.92;75.11;95851.81;1708975;84;21031;-71
2022/03/10 00:45:06;;;;;;;14.60;7.80;;;;;;;-0.90;74.37;95859.22;1695630;85;21075;-71
2022/03/10 00:47:34;;;;;;;14.23;8.57;;;;;;;-0.95;74.44;95855.61;1708947;83;21071;-71
2022/03/10 00:50:01;;;;;;;13.10;7.90;;;;;;;-0.96;74.06;95855.55;1695548;85;21015;-71
2022/03/10 00:52:28;;;;;;;17.50;8.17;;;;;;;-1.02;74.04;95857.55;1708919;84;21058;-71
2022/03/10 00:54:55;;;;;;;13.20;8.33;;;;;;;-1.04;74.01;95857.05;1695801;83;21055;-71
2022/03/10 00:57:21;;;;;;;15.47;8.10;;;;;;;-1.04;73.73;95858.34;1708965;84;21095;-71
2022/03/10 00:59:48;;;;;;;12.17;7.53;;;;;;;-1.09;74.06;95859.48;1695714;85;21002;-70
2022/03/10 01:02:14;;;;;;;15.77;7.73;;;;;;;-1.10;73.72;95862.92;1712715;84;21070;-70
2022/03/10 01:04:41;;;;;;;12.77;7.40;;;;;;;-1.12;73.93;95860.70;1694805;85;20968;-71
2022/03/10 01:07:07;;;;;;;12.97;7.33;;;;;;;-1.12;73.82;95863.29;1694919;84;21019;-71
2022/03/10 01:09:34;;;;;;;11.00;7.03;;;;;;;-1.15;73.75;95859.31;1695162;84;20995;-70
2022/03/10 01:12:00;;;;;;;13.40;7.20;;;;;;;-1.18;74.23;95859.23;1694858;85;21062;-70
2022/03/10 01:14:27;;;;;;;11.17;6.43;;;;;;;-1.26;74.42;95862.87;1694942;85;20963;-70
2022/03/10 01:16:56;;;;;;;12.73;7.10;;;;;;;-1.35;75.44;95866.47;1695011;84;21071;-70
2022/03/10 01:19:22;;;;;;;11.73;6.97;;;;;;;-1.40;75.68;95868.91;1694726;84;21023;-70
2022/03/10 01:21:48;;;;;;;11.90;6.93;;;;;;;-1.48;76.28;95866.92;1694860;84;21528;-70
2022/03/10 01:24:16;;;;;;;15.40;7.77;;;;;;;-1.52;76.85;95867.22;1694939;85;20987;-70
2022/03/10 01:26:43;;;;;;;12.53;7.60;;;;;;;-1.57;77.29;95863.18;1695014;85;21500;-70
2022/03/10 01:29:09;;;;;;;11.23;7.33;;;;;;;-1.57;77.14;95868.78;1694936;84;21019;-70
2022/03/10 01:31:36;;;;;;;10.17;6.97;;;;;;;-1.61;78.04;95871.70;1695020;84;21035;-71
2022/03/10 01:34:02;;;;;;;12.70;7.97;;;;;;;-1.62;77.88;95873.80;1694694;84;21031;-71
2022/03/10 01:36:29;;;;;;;11.90;6.57;;;;;;;-1.64;78.22;95880.66;1695139;84;20991;-71
2022/03/10 01:38:55;;;;;;;9.97;6.30;;;;;;;-1.66;78.85;95871.96;1694843;84;21062;-71
2022/03/10 01:41:22;;;;;;;12.10;7.17;;;;;;;-1.69;79.01;95873.12;1695046;84;21465;-71
2022/03/10 01:44:04;;;;;;;12.13;6.80;;;;;;;-1.70;79.30;95876.55;1694976;85;21062;-71
2022/03/10 01:46:31;;;;;;;12.73;7.33;;;;;;;-1.72;79.44;95880.80;1695029;85;21489;-71
2022/03/10 01:48:59;;;;;;;12.43;6.93;;;;;;;-1.75;79.33;95885.87;1694757;84;21054;-71
2022/03/10 01:51:26;;;;;;;10.70;6.60;;;;;;;-1.75;79.46;95884.16;1694877;84;21545;-71
2022/03/10 01:53:53;;;;;;;14.10;6.87;;;;;;;-1.86;80.05;95889.41;1694799;84;21051;-71
2022/03/10 01:56:22;;;;;;;10.90;5.80;;;;;;;-1.93;80.05;95895.61;1694879;84;21079;-70
2022/03/10 01:58:54;;;;;;;8.50;5.47;;;;;;;-2.06;80.59;95909.83;1694986;85;21058;-70
2022/03/10 02:01:22;;;;;;;9.93;5.60;;;;;;;-2.10;80.10;95909.25;1695792;84;21489;-71
2022/03/10 02:03:49;;;;;;;8.10;5.30;;;;;;;-2.15;80.06;95918.55;1697726;84;21533;-71
2022/03/10 02:06:16;;;;;;;9.10;5.47;;;;;;;-2.20;79.91;95928.30;1696823;85;21031;-70
2022/03/10 02:11:29;;;;;;;9.90;5.20;;;;;;;-2.28;79.73;95936.62;1696934;84;21813;-70
2022/03/10 02:13:56;;;;;;;10.53;5.97;;;;;;;-2.33;78.89;95934.28;1697855;84;21083;-70
2022/03/10 02:19:08;;;;;;;11.40;6.77;;;;;;;-2.46;78.89;95940.70;1697956;83;20999;-70
2022/03/10 02:21:36;;;;;;;13.13;7.73;;;;;;;-2.49;78.20;95949.65;1697098;84;21556;-70
2022/03/10 02:24:02;;;;;;;16.33;9.63;;;;;;;-2.44;76.27;95955.86;1698061;84;21529;-70
2022/03/10 02:26:29;;;;;;;15.50;8.97;;;;;;;-2.51;71.54;95955.16;1696953;84;21077;-70
2022/03/10 02:28:56;;;;;;;15.43;8.77;;;;;;;-2.55;70.44;95964.91;1697905;84;20995;-70
2022/03/10 02:31:22;;;;;;;17.40;9.60;;;;;;;-2.68;68.23;95960.56;1697003;84;21037;-70
2022/03/10 02:33:49;;;;;;;18.10;10.07;;;;;;;-2.72;68.29;95961.29;1697974;84;21082;-70
2022/03/10 02:36:16;;;;;;;13.70;7.40;;;;;;;-2.88;66.55;95966.67;1697876;83;20988;-70
2022/03/10 02:38:42;;;;;;;17.50;9.83;;;;;;;-2.96;66.42;95968.95;1697103;84;20996;-70
2022/03/10 02:41:09;;;;;;;18.90;10.57;;;;;;;-2.97;67.07;95971.47;1697943;84;21525;-70
2022/03/10 02:43:36;;;;;;;18.90;9.97;;;;;;;-3.11;65.43;95976.97;1698000;84;21091;-70
2022/03/10 02:46:02;;;;;;;16.43;10.03;;;;;;;-3.17;65.97;95978.03;1696979;84;21043;-70
2022/03/10 02:48:29;;;;;;;20.50;10.03;;;;;;;-3.28;64.79;95988.32;1696979;84;21030;-70
2022/03/10 02:50:55;;;;;;;18.70;10.00;;;;;;;-3.27;65.55;95996.14;1696895;84;21004;-70
2022/03/10 02:53:22;;;;;;;19.33;9.90;;;;;;;-3.26;65.29;95997.02;1696961;84;21046;-70
2022/03/10 02:55:49;;;;;;;21.20;10.53;;;;;;;-3.22;66.05;96001.48;1698140;84;21587;-71
2022/03/10 02:58:16;;;;;;;21.83;10.13;;;;;;;-3.16;66.70;96000.43;1697970;84;21094;-70
2022/03/10 03:00:42;;;;;;;17.00;10.83;;;;;;;-3.09;65.72;95999.86;1698043;84;20999;-71
2022/03/10 03:03:09;;;;;;;16.83;10.23;;;;;;;-3.19;65.59;96002.02;1695835;84;21003;-70
2022/03/10 03:05:35;;;;;;;19.87;10.47;;;;;;;-3.13;65.77;96007.00;1695616;85;21067;-70
2022/03/10 03:08:02;;;;;;;21.23;10.63;;;;;;;-3.11;65.78;96011.82;1695846;85;21032;-70
2022/03/10 03:10:29;;;;;;;21.03;9.93;;;;;;;-3.13;65.58;96020.32;1695731;84;21565;-70
2022/03/10 03:12:56;;;;;;;18.70;10.43;;;;;;;-3.23;66.24;96028.52;1709094;83;21454;-71
2022/03/10 03:15:23;;;;;;;16.93;9.90;;;;;;;-3.40;67.30;96031.67;1687756;85;21038;-71
2022/03/10 03:17:49;;;;;;;22.07;11.50;;;;;;;-3.61;67.46;96043.27;1687817;84;21553;-72
2022/03/10 03:20:17;;;;;;;19.27;10.43;;;;;;;-3.76;67.48;96053.80;1696181;85;20970;-71
2022/03/10 03:22:44;;;;;;;25.67;11.33;;;;;;;-3.98;67.82;96056.75;1695761;85;21035;-71
2022/03/10 03:25:16;;;;;;;19.07;11.57;;;;;;;-4.17;67.78;96056.73;1695662;85;21126;-71
2022/03/10 03:27:43;;;;;;;18.03;10.13;;;;;;;-4.26;69.13;96057.21;1695771;85;21003;-71
2022/03/10 03:30:11;;;;;;;18.10;9.77;;;;;;;-4.37;67.16;96064.43;1695805;84;21000;-71
2022/03/10 03:32:37;;;;;;;24.60;11.90;;;;;;;-4.48;66.50;96069.92;1708923;83;21532;-71
2022/03/10 03:35:04;;;;;;;20.07;10.73;;;;;;;-4.51;66.92;96072.33;1687661;85;21007;-71
2022/03/10 03:37:31;;;;;;;21.10;11.07;;;;;;;-4.50;66.41;96074.98;1687860;85;21027;-71
2022/03/10 03:39:57;;;;;;;21.07;11.07;;;;;;;-4.49;66.61;96077.15;1696123;85;21002;-71
2022/03/10 03:42:25;;;;;;;26.93;12.20;;;;;;;-4.49;66.57;96084.46;1695806;85;21086;-71
2022/03/10 03:44:52;;;;;;;16.30;8.37;;;;;;;-4.46;67.29;96081.15;1695563;85;21827;-71
2022/03/10 03:47:19;;;;;;;23.40;11.73;;;;;;;-4.70;67.11;96079.61;1708574;84;21027;-71
2022/03/10 03:49:45;;;;;;;18.57;10.43;;;;;;;-4.81;68.03;96096.72;1687866;85;21538;-71
2022/03/10 03:52:12;;;;;;;15.30;7.83;;;;;;;-4.90;69.01;96097.96;1687753;84;21008;-71
2022/03/10 03:54:39;;;;;;;22.40;10.90;;;;;;;-5.02;68.87;96104.67;1695749;85;21465;-70
2022/03/10 03:57:06;;;;;;;20.37;10.13;;;;;;;-5.13;69.09;96102.87;1695798;85;21087;-71
2022/03/10 03:59:32;;;;;;;21.47;10.63;;;;;;;-5.17;69.53;96118.95;1695847;85;21011;-71
2022/03/10 04:01:59;;;;;;;20.50;10.07;;;;;;;-5.23;69.45;96128.95;1695411;85;21130;-71
2022/03/10 04:04:25;;;;;;;22.20;10.67;;;;;;;-5.31;69.41;96131.13;1695626;85;21054;-71
2022/03/10 04:06:52;;;;;;;24.27;10.50;;;;;;;-5.46;69.30;96139.36;1695859;84;20996;-70
2022/03/10 04:09:18;;;;;;;21.60;10.73;;;;;;;-5.54;69.37;96133.83;1695502;84;21051;-71
2022/03/10 04:11:45;;;;;;;13.93;7.23;;;;;;;-5.58;69.60;96137.44;1695797;85;21063;-71
2022/03/10 04:14:12;;;;;;;17.90;9.83;;;;;;;-5.76;69.56;96146.38;1708818;84;21012;-71
2022/03/10 04:16:40;;;;;;;14.03;7.57;;;;;;;-6.03;69.48;96146.70;1695672;85;21027;-71
2022/03/10 04:19:06;;;;;;;16.10;7.63;;;;;;;-6.22;69.92;96150.39;1708984;84;21051;-71
2022/03/10 04:21:33;;;;;;;18.70;9.03;;;;;;;-6.53;70.35;96157.67;1695602;85;21062;-71
2022/03/10 04:24:00;;;;;;;19.23;9.57;;;;;;;-6.61;70.75;96156.38;1709006;84;20995;-71
2022/03/10 04:26:27;;;;;;;18.60;10.03;;;;;;;-6.64;70.63;96162.63;1695754;85;21091;-71
2022/03/10 04:28:53;;;;;;;18.73;9.23;;;;;;;-6.69;71.09;96158.52;1695587;85;20971;-71
2022/03/10 04:31:20;;;;;;;18.23;8.67;;;;;;;-6.73;71.28;96159.53;1709070;83;20996;-71
2022/03/10 04:33:47;;;;;;;19.40;9.70;;;;;;;-6.84;71.35;96161.50;1695779;85;21019;-69
2022/03/10 04:36:13;;;;;;;12.67;6.93;;;;;;;-6.93;71.18;96169.55;1708637;84;21079;-68
2022/03/10 04:38:40;;;;;;;14.40;6.90;;;;;;;-7.08;71.99;96169.58;1695783;85;20975;-68
2022/03/10 04:41:07;;;;;;;8.73;4.03;;;;;;;-7.17;72.08;96173.29;1708917;84;21103;-69
2022/03/10 04:43:33;;;;;;;17.50;9.63;;;;;;;-7.22;72.23;96180.30;1695692;85;21094;-68
2022/03/10 04:46:00;;;;;;;18.20;9.73;;;;;;;-7.31;72.24;96176.31;1708962;84;21055;-68
2022/03/10 04:48:26;;;;;;;19.87;10.03;;;;;;;-7.39;72.47;96183.55;1695674;84;21562;-68
2022/03/10 04:50:53;;;;;;;19.73;9.93;;;;;;;-7.52;73.42;96184.52;1695212;85;21046;-68
2022/03/10 04:53:20;;;;;;;32.70;13.57;;;;;;;-7.50;73.03;96189.34;1708955;84;21023;-68
2022/03/10 04:55:47;;;;;;;16.83;8.27;;;;;;;-7.64;72.57;96196.59;1687809;85;21520;-68
2022/03/10 04:58:14;;;;;;;27.80;11.70;;;;;;;-7.72;72.40;96198.69;1687595;84;21055;-68
2022/03/10 05:00:41;;;;;;;56.03;19.37;;;;;;;-7.84;73.82;96203.98;1695943;85;21038;-68
2022/03/10 05:03:07;;;;;;;22.43;9.23;;;;;;;-7.91;74.58;96203.11;1694997;84;21016;-69
2022/03/10 05:05:34;;;;;;;20.27;9.73;;;;;;;-7.87;73.73;96215.29;1676968;85;21012;-68
2022/03/10 05:08:01;;;;;;;20.87;10.40;;;;;;;-7.80;73.70;96216.97;1695049;85;20995;-68
2022/03/10 05:10:28;;;;;;;25.23;11.97;;;;;;;-7.76;74.00;96213.41;1694743;84;21884;-69
2022/03/10 05:12:57;;;;;;;25.70;10.50;;;;;;;-7.76;74.06;96222.38;1694882;84;21007;-68
2022/03/10 05:15:33;;;;;;;28.20;14.87;;;;;;;-7.71;74.21;96231.59;1695011;85;21026;-68
2022/03/10 05:18:00;;;;;;;32.63;16.33;;;;;;;-7.65;74.45;96239.67;1693888;84;21039;-68
2022/03/10 05:20:29;;;;;;;27.27;12.97;;;;;;;-7.53;74.43;96244.27;1694488;84;21522;-68
2022/03/10 05:22:59;;;;;;;19.87;9.80;;;;;;;-7.46;73.42;96250.25;1695021;85;20987;-68
2022/03/10 05:25:39;;;;;;;18.10;9.73;;;;;;;-7.43;73.37;96242.74;1694900;85;21035;-68
2022/03/10 05:28:12;;;;;;;17.40;8.63;;;;;;;-7.36;73.02;96248.22;1694986;84;20999;-68
2022/03/10 05:30:37;;;;;;;10.40;4.63;;;;;;;-7.29;73.09;96249.08;1694698;84;21502;-68
2022/03/10 05:33:03;;;;;;;13.77;8.57;;;;;;;-7.35;72.31;96250.02;1694785;84;21039;-68
2022/03/10 05:35:30;;;;;;;19.20;9.57;;;;;;;-7.40;72.29;96258.70;1694819;85;21560;-68
2022/03/10 05:37:59;;;;;;;12.27;6.83;;;;;;;-7.38;72.47;96267.75;1694933;85;21055;-68
2022/03/10 05:40:26;;;;;;;16.03;7.87;;;;;;;-7.46;72.03;96266.91;1694834;84;21007;-68
2022/03/10 05:42:54;;;;;;;19.67;9.13;;;;;;;-7.47;72.18;96274.50;1694930;84;21015;-68
2022/03/10 05:45:22;;;;;;;22.00;10.70;;;;;;;-7.46;72.14;96264.72;1694684;84;21031;-69
2022/03/10 05:47:51;;;;;;;22.60;11.23;;;;;;;-7.46;72.77;96273.32;1661641;86;21496;-68
2022/03/10 05:50:19;;;;;;;29.30;13.07;;;;;;;-7.40;72.84;96274.08;1693681;85;21659;-68
2022/03/10 05:52:46;;;;;;;23.73;10.30;;;;;;;-7.37;72.62;96278.10;1693894;84;21034;-69
2022/03/10 05:55:15;;;;;;;11.73;6.07;;;;;;;-7.35;72.97;96280.77;1693587;84;21094;-68
2022/03/10 05:57:42;;;;;;;15.87;7.53;;;;;;;-7.35;72.88;96291.03;1694865;85;21007;-69
2022/03/10 06:00:11;;;;;;;19.33;8.73;;;;;;;-7.33;72.85;96285.20;1694651;84;21501;-68
2022/03/10 06:02:42;;;;;;;31.93;12.93;;;;;;;-7.27;72.62;96288.12;1692708;85;21004;-66
2022/03/10 06:05:09;;;;;;;28.53;12.80;;;;;;;-7.23;73.08;96290.45;1689426;84;21871;-69
2022/03/10 06:07:35;;;;;;;18.67;7.37;;;;;;;-7.13;73.44;96288.05;1689598;84;21011;-70
2022/03/10 06:10:03;;;;;;;26.63;11.87;;;;;;;-7.03;73.14;96301.54;1689222;85;21050;-70
2022/03/10 06:12:30;;;;;;;40.80;20.13;;;;;;;-6.93;73.23;96295.25;1694770;85;21014;-68
2022/03/10 06:14:58;;;;;;;22.70;10.73;;;;;;;-6.75;73.70;96296.34;1689056;85;21084;-68
2022/03/10 06:17:27;;;;;;;21.43;11.07;;;;;;;-6.54;73.03;96300.55;1689694;85;21007;-67
2022/03/10 06:19:54;;;;;;;30.03;14.70;;;;;;;-6.35;72.69;96301.59;1689028;84;21138;-70
2022/03/10 06:22:29;;;;;;;43.47;20.50;;;;;;;-6.24;72.26;96297.97;1691914;84;21067;-71
2022/03/10 06:24:57;;;;;;;52.23;28.73;;;;;;;-6.00;72.49;96306.55;1689491;85;21661;-67
2022/03/10 06:27:25;;;;;;;34.10;16.80;;;;;;;-5.79;71.12;96316.72;1694918;85;21504;-70
2022/03/10 06:29:53;;;;;;;59.57;27.13;;;;;;;-5.51;71.00;96319.11;1694004;83;21092;-71
2022/03/10 06:32:22;;;;;;;39.67;19.50;;;;;;;-5.36;70.98;96315.20;1693756;83;20968;-69
2022/03/10 06:34:52;;;;;;;38.20;19.60;;;;;;;-5.08;70.09;96318.83;1686092;83;21074;-68
2022/03/10 06:37:20;;;;;;;74.73;39.73;;;;;;;-4.98;69.39;96320.20;1689520;83;21022;-70
2022/03/10 06:39:46;;;;;;;71.57;34.47;;;;;;;-4.72;69.21;96329.26;1691613;83;21065;-72
2022/03/10 06:42:14;;;;;;;61.07;29.63;;;;;;;-4.40;68.81;96332.59;1691793;83;20980;-68
2022/03/10 06:44:41;;;;;;;73.90;37.90;;;;;;;-4.19;67.34;96337.92;1691864;83;21001;-67
2022/03/10 06:47:09;;;;;;;82.87;41.50;;;;;;;-4.05;67.93;96329.19;1686522;85;21006;-68
2022/03/10 06:49:36;;;;;;;53.63;28.30;;;;;;;-3.88;66.64;96331.69;1695413;84;21086;-70
2022/03/10 06:52:05;;;;;;;59.43;29.50;;;;;;;-3.72;66.80;96348.39;1695055;85;21508;-69
2022/03/10 06:54:32;;;;;;;47.07;23.70;;;;;;;-3.59;65.70;96336.97;1694546;85;21157;-71
2022/03/10 06:56:59;;;;;;;46.20;24.37;;;;;;;-3.40;65.34;96343.86;1694368;84;21087;-67
2022/03/10 06:59:26;;;;;;;30.37;17.10;;;;;;;-3.25;65.47;96334.28;1690932;85;21106;-66
2022/03/10 07:01:54;;;;;;;33.27;16.40;;;;;;;-3.01;64.21;96346.52;1695408;84;21006;-67
2022/03/10 07:04:21;;;;;;;34.40;19.00;;;;;;;-2.90;64.07;96337.55;1712010;84;21070;-67
2022/03/10 07:06:47;;;;;;;24.67;14.90;;;;;;;-2.70;64.25;96345.77;1694568;85;20979;-66
2022/03/10 07:09:14;;;;;;;23.80;12.73;;;;;;;-2.41;64.46;96339.30;1695251;85;21114;-67
2022/03/10 07:11:41;;;;;;;27.43;13.80;;;;;;;-2.25;63.27;96339.95;1695519;85;21525;-67
2022/03/10 07:14:07;;;;;;;20.97;12.57;;;;;;;-2.07;62.26;96349.77;1695410;84;21122;-68
2022/03/10 07:16:34;;;;;;;23.33;11.90;;;;;;;-1.98;62.21;96347.99;1712917;84;21608;-68
2022/03/10 07:19:01;;;;;;;24.63;13.57;;;;;;;-1.79;61.56;96352.20;1695644;85;21091;-67
2022/03/10 07:21:27;;;;;;;69.37;41.87;;;;;;;-1.63;60.44;96353.31;1712245;84;21679;-67
2022/03/10 07:23:53;;;;;;;28.07;15.30;;;;;;;-1.60;60.20;96353.84;1695225;85;21018;-69
2022/03/10 07:26:21;;;;;;;18.70;10.90;;;;;;;-1.38;60.16;96353.00;1712284;84;21085;-69
2022/03/10 07:28:48;;;;;;;48.90;29.00;;;;;;;-1.18;59.23;96348.61;1694515;85;21193;-68
2022/03/10 07:31:15;;;;;;;53.10;30.07;;;;;;;-1.06;59.04;96354.23;1694115;84;21540;-66
2022/03/10 07:33:44;;;;;;;28.87;16.33;;;;;;;-0.97;58.09;96358.89;1694561;83;21060;-72
2022/03/10 07:36:11;;;;;;;86.90;53.13;;;;;;;-0.86;57.91;96354.98;1691557;83;21043;-71
2022/03/10 07:38:37;;;;;;;24.90;15.23;;;;;;;-0.72;57.26;96355.52;1693601;84;21035;-70
2022/03/10 07:41:04;;;;;;;25.53;13.03;;;;;;;-0.55;56.71;96362.20;1693931;85;21498;-66
2022/03/10 07:43:31;;;;;;;28.90;14.40;;;;;;;-0.53;55.81;96361.84;1695361;84;21046;-69
2022/03/10 07:45:57;;;;;;;25.43;13.23;;;;;;;-0.41;56.19;96361.80;1712155;84;21031;-72
2022/03/10 07:48:24;;;;;;;21.80;12.37;;;;;;;-0.33;55.20;96363.86;1695109;85;21003;-70
2022/03/10 07:50:50;;;;;;;21.90;13.20;;;;;;;-0.36;55.38;96367.61;1695209;84;21561;-71
2022/03/10 07:53:19;;;;;;;29.33;13.20;;;;;;;-0.33;55.89;96356.47;1695435;85;21038;-73
2022/03/10 07:55:46;;;;;;;21.30;11.60;;;;;;;-0.22;54.71;96362.94;1712634;83;21134;-70
2022/03/10 07:58:12;;;;;;;21.53;12.43;;;;;;;-0.21;54.88;96359.50;1695236;85;21524;-70
2022/03/10 08:00:38;;;;;;;25.63;17.43;;;;;;;-0.22;54.64;96353.86;1695119;84;21065;-70
2022/03/10 08:03:06;;;;;;;25.97;13.33;;;;;;;-0.08;54.24;96351.73;1667551;85;21501;-70
2022/03/10 08:05:34;;;;;;;24.23;12.97;;;;;;;0.01;54.45;96353.35;1694252;84;21141;-71
2022/03/10 08:08:01;;;;;;;21.40;11.17;;;;;;;0.18;54.47;96353.92;1670461;85;20990;-70
2022/03/10 08:10:28;;;;;;;19.53;11.87;;;;;;;0.36;54.08;96356.25;1669761;86;21077;-72
2022/03/10 08:12:54;;;;;;;20.00;10.97;;;;;;;0.59;54.51;96360.46;1669746;86;21093;-68
2022/03/10 08:15:21;;;;;;;20.93;12.60;;;;;;;0.84;52.72;96358.64;1670516;86;21006;-69
2022/03/10 08:17:48;;;;;;;24.90;13.77;;;;;;;1.15;52.28;96347.88;1669630;86;21054;-67
2022/03/10 08:20:16;;;;;;;22.70;10.30;;;;;;;1.30;52.12;96353.10;1670383;86;21484;-69
2022/03/10 08:22:43;;;;;;;17.33;9.07;;;;;;;1.23;49.69;96354.17;1670366;86;21149;-70
2022/03/10 08:25:09;;;;;;;16.60;9.97;;;;;;;1.18;50.78;96361.83;1694546;85;21551;-69
2022/03/10 08:27:36;;;;;;;15.47;9.70;;;;;;;1.31;49.36;96354.01;1694047;84;21138;-70
2022/03/10 08:30:05;;;;;;;10.70;7.67;;;;;;;1.36;50.19;96355.41;1694877;84;21064;-69
2022/03/10 08:32:32;;;;;;;13.63;8.53;;;;;;;1.23;47.86;96358.95;1694049;84;21579;-69
2022/03/10 08:34:58;;;;;;;11.07;7.40;;;;;;;1.22;48.36;96357.63;1694667;85;21004;-70
2022/03/10 08:37:25;;;;;;;9.43;5.80;;;;;;;1.45;47.70;96363.06;1694131;85;21093;-71
2022/03/10 08:39:52;;;;;;;11.13;7.80;;;;;;;1.61;45.92;96359.59;1694195;84;21046;-72
2022/03/10 08:42:18;;;;;;;8.63;6.07;;;;;;;1.66;46.87;96359.31;1694047;84;21038;-70
2022/03/10 08:44:45;;;;;;;8.70;5.23;;;;;;;1.69;45.40;96357.69;1694041;85;20994;-67
2022/03/10 08:47:12;;;;;;;8.53;5.20;;;;;;;1.54;44.64;96368.06;1694745;85;21089;-66
2022/03/10 08:49:38;;;;;;;10.60;6.60;;;;;;;1.30;44.89;96370.42;1694706;85;21062;-68
2022/03/10 08:52:06;;;;;;;13.67;9.83;;;;;;;1.19;45.74;96363.61;1693310;84;21065;-70
2022/03/10 08:54:32;;;;;;;8.10;5.30;;;;;;;1.26;46.22;96372.45;1694191;84;21034;-68
2022/03/10 08:56:59;;;;;;;6.63;4.83;;;;;;;1.08;42.61;96379.28;1694200;85;22259;-67
2022/03/10 08:59:26;;;;;;;7.53;5.70;;;;;;;1.00;44.31;96378.18;1693618;84;21058;-67
2022/03/10 09:01:52;;;;;;;9.37;4.87;;;;;;;0.97;45.37;96377.67;1694682;84;21054;-66
2022/03/10 09:04:20;;;;;;;4.67;3.50;;;;;;;1.10;44.65;96380.65;1694705;85;21102;-68
2022/03/10 09:06:47;;;;;;;5.37;3.60;;;;;;;1.33;42.74;96374.41;1694323;85;21062;-74
2022/03/10 09:09:14;;;;;;;7.87;4.93;;;;;;;1.53;43.37;96376.72;1694821;85;21130;-69
2022/03/10 09:11:40;;;;;;;7.50;4.57;;;;;;;1.88;43.17;96380.31;1695512;85;21503;-69
2022/03/10 09:14:07;;;;;;;5.30;3.67;;;;;;;2.11;41.70;96371.39;1694681;85;21090;-68
2022/03/10 09:16:34;;;;;;;5.27;3.57;;;;;;;2.42;41.92;96378.72;1694410;85;21114;-69
2022/03/10 09:19:00;;;;;;;6.90;3.83;;;;;;;3.00;40.96;96373.61;1694790;85;21074;-68
2022/03/10 09:21:27;;;;;;;5.87;3.70;;;;;;;2.99;39.79;96375.73;1694906;85;20999;-68
2022/03/10 09:23:53;;;;;;;6.20;3.70;;;;;;;2.83;37.68;96380.16;1695080;85;21033;-68
2022/03/10 09:26:20;;;;;;;5.27;3.43;;;;;;;2.84;39.22;96387.11;1694930;85;21112;-68
2022/03/10 09:28:47;;;;;;;4.67;3.43;;;;;;;2.80;38.34;96379.66;1694811;85;21066;-69
2022/03/10 09:31:16;;;;;;;5.23;3.60;;;;;;;2.73;38.17;96384.26;1694835;85;21032;-69
2022/03/10 09:33:44;;;;;;;8.03;5.07;;;;;;;2.47;38.64;96384.92;1694392;85;21043;-70
2022/03/10 09:36:11;;;;;;;6.17;5.33;;;;;;;2.31;38.81;96389.27;1694483;85;21084;-71
2022/03/10 09:38:38;;;;;;;8.77;5.47;;;;;;;2.20;40.70;96397.23;1692461;85;21024;-71
2022/03/10 09:41:04;;;;;;;8.13;7.30;;;;;;;2.40;41.14;96396.02;1694346;85;21045;-71
2022/03/10 09:43:32;;;;;;;4.90;3.47;;;;;;;3.28;41.00;96383.36;1674903;85;20994;-73
2022/03/10 09:45:59;;;;;;;5.20;4.53;;;;;;;4.17;36.20;96377.34;1665910;84;21031;-71
2022/03/10 09:48:27;;;;;;;5.77;3.70;;;;;;;4.64;36.56;96376.01;1697086;84;20988;-71
2022/03/10 09:50:55;;;;;;;5.23;3.70;;;;;;;5.06;35.68;96375.35;1694281;85;21128;-71
2022/03/10 09:53:21;;;;;;;4.47;3.50;;;;;;;5.34;35.20;96371.00;1694097;84;21098;-70
2022/03/10 09:55:48;;;;;;;5.77;3.83;;;;;;;5.71;35.36;96368.85;1694152;85;21545;-73
2022/03/10 09:58:15;;;;;;;5.97;4.30;;;;;;;5.53;33.99;96377.34;1693863;85;21062;-71
2022/03/10 10:00:41;;;;;;;3.83;2.73;;;;;;;4.81;33.47;96384.11;1694000;85;21083;-68
2022/03/10 10:03:08;;;;;;;3.80;2.73;;;;;;;4.55;34.08;96387.60;1694729;83;21012;-71
2022/03/10 10:05:40;;;;;;;3.50;2.40;;;;;;;4.19;33.45;96392.62;1694296;85;21553;-70
2022/03/10 10:08:18;;;;;;;4.23;3.07;;;;;;;3.59;34.78;96395.77;1694409;85;21705;-71
2022/03/10 10:10:48;;;;;;;3.83;2.80;;;;;;;3.59;34.78;96395.77;1693748;85;21548;-71
2022/03/10 10:13:43;;;;;;;6.57;3.43;;;;;;;3.40;36.31;96396.68;1693656;84;21065;-71
2022/03/10 10:16:14;;;;;;;3.50;2.67;;;;;;;3.35;36.53;96394.80;1694580;85;21026;-70
2022/03/10 10:18:42;;;;;;;3.47;2.70;;;;;;;2.97;35.50;96397.41;1694302;85;21490;-71
2022/03/10 10:21:14;;;;;;;4.20;2.30;;;;;;;2.75;35.82;96394.73;1694924;85;21034;-71
2022/03/10 10:23:42;;;;;;;4.20;3.30;;;;;;;2.52;35.82;96404.55;1694887;85;21035;-70
2022/03/10 10:26:13;;;;;;;3.43;2.70;;;;;;;2.41;36.93;96404.28;1695148;85;21110;-70
2022/03/10 10:28:45;;;;;;;4.03;3.17;;;;;;;2.15;36.93;96409.69;1695367;85;21146;-70
2022/03/10 10:31:16;;;;;;;4.33;3.80;;;;;;;1.96;37.37;96406.12;1695403;85;21035;-70
2022/03/10 10:34:02;;;;;;;4.07;3.20;;;;;;;2.16;37.25;96401.45;1695233;85;21053;-70
2022/03/10 10:36:37;;;;;;;5.47;3.00;;;;;;;2.49;38.18;96403.17;1695371;85;21058;-70
2022/03/10 10:39:10;;;;;;;3.50;2.80;;;;;;;2.50;36.65;96401.93;1695470;85;21011;-70
2022/03/10 10:41:39;;;;;;;;;;;;;;;2.35;35.11;96395.03;1698056;85;21019;-70
2022/03/10 10:44:09;;;;;;;3.83;3.00;;;;;;;2.29;34.31;96398.75;1695681;85;20128;-70
2022/03/10 10:46:40;;;;;;;7.80;4.23;;;;;;;3.23;36.84;96390.20;1695207;85;21528;-71
2022/03/10 10:49:11;;;;;;;7.77;3.27;;;;;;;3.82;35.63;96383.19;1695462;85;20995;-70
2022/03/10 10:51:47;;;;;;;3.50;2.67;;;;;;;3.72;33.29;96391.68;1695538;85;21038;-70
2022/03/10 10:54:25;;;;;;;3.93;2.80;;;;;;;3.49;34.56;96395.11;1695386;85;21140;-70
2022/03/10 10:57:01;;;;;;;4.87;3.00;;;;;;;3.27;35.74;96388.53;1695121;85;21540;-70
2022/03/10 10:59:40;;;;;;;4.63;3.07;;;;;;;3.07;35.88;96396.77;1694261;84;21050;-70
2022/03/10 11:02:17;;;;;;;5.07;3.27;;;;;;;2.87;37.29;96405.85;1695302;85;21002;-70
2022/03/10 11:04:51;;;;;;;5.23;2.93;;;;;;;2.59;34.16;96404.74;1694743;84;21045;-70
2022/03/10 11:07:21;;;;;;;5.77;3.50;;;;;;;2.46;34.95;96409.19;1695556;85;21054;-71
2022/03/10 11:09:49;;;;;;;5.20;4.10;;;;;;;2.53;35.76;96404.60;1695436;85;21107;-70
2022/03/10 11:12:18;;;;;;;4.33;2.93;;;;;;;2.46;34.90;96405.28;1695525;85;21019;-70
2022/03/10 11:14:46;;;;;;;8.23;5.50;;;;;;;2.44;34.99;96407.39;1695666;85;21608;-70
2022/03/10 11:17:16;;;;;;;4.87;3.10;;;;;;;2.29;35.82;96407.87;1695482;84;21015;-70
2022/03/10 11:19:48;;;;;;;4.77;2.80;;;;;;;2.34;36.53;96408.87;1695494;84;21585;-70
2022/03/10 11:23:00;;;;;;;6.47;3.70;;;;;;;2.32;35.66;96401.03;1694534;85;21018;-70
2022/03/10 11:25:53;;;;;;;5.60;3.67;;;;;;;2.29;35.79;96400.96;1695592;84;21078;-70
2022/03/10 11:28:25;;;;;;;13.68;8.08;;;;;;;2.15;36.77;96402.31;1695845;84;21014;-70
2022/03/10 11:30:56;;;;;;;6.20;3.33;;;;;;;2.03;36.20;96408.05;1691883;85;21031;-70
2022/03/10 11:33:33;;;;;;;8.77;4.33;;;;;;;2.03;36.62;96402.84;1694790;85;21585;-70
2022/03/10 11:36:30;;;;;;;5.43;3.60;;;;;;;1.97;35.72;96401.82;1695340;85;21026;-71